sensor_id;sensor_type;location;lat;lon;timestamp;P1;durP1;ratioP1;P2;durP2;ratioP2
20294;SDS011;10306;52.128;5.208;2023-09-19T00:01:18;8.50;;;1.90;;
20294;SDS011;10306;52.128;5.208;2023-09-19T00:03:45;4.27;;;1.87;;
20294;SDS011;10306;52.128;5.208;2023-09-19T00:06:11;5.60;;;2.00;;
20294;SDS011;10306;52.128;5.208;2023-09-19T00:08:40;4.43;;;1.70;;
20294;SDS011;10306;52.128;5.208;2023-09-19T00:11:09;3.77;;;1.80;;
20294;SDS011;10306;52.128;5.208;2023-09-19T00:13:36;5.57;;;1.87;;
20294;SDS011;10306;52.128;5.208;2023-09-19T00:16:08;4.10;;;1.87;;
20294;SDS011;10306;52.128;5.208;2023-09-19T00:18:35;4.77;;;1.80;;
20294;SDS011;10306;52.128;5.208;2023-09-19T00:21:01;6.00;;;1.90;;
20294;SDS011;10306;52.128;5.208;2023-09-19T00:23:29;3.37;;;1.70;;
20294;SDS011;10306;52.128;5.208;2023-09-19T00:25:59;5.57;;;1.70;;
20294;SDS011;10306;52.128;5.208;2023-09-19T00:28:26;8.30;;;2.00;;
20294;SDS011;10306;52.128;5.208;2023-09-19T00:30:52;5.33;;;1.97;;
20294;SDS011;10306;52.128;5.208;2023-09-19T00:33:19;5.13;;;2.13;;
20294;SDS011;10306;52.128;5.208;2023-09-19T00:35:49;5.23;;;1.70;;
20294;SDS011;10306;52.128;5.208;2023-09-19T00:38:15;4.77;;;1.43;;
20294;SDS011;10306;52.128;5.208;2023-09-19T00:40:45;4.20;;;1.60;;
20294;SDS011;10306;52.128;5.208;2023-09-19T00:43:11;2.67;;;1.70;;
20294;SDS011;10306;52.128;5.208;2023-09-19T00:45:37;3.80;;;1.90;;
20294;SDS011;10306;52.128;5.208;2023-09-19T00:48:04;5.20;;;1.80;;
20294;SDS011;10306;52.128;5.208;2023-09-19T00:50:34;5.87;;;2.13;;
20294;SDS011;10306;52.128;5.208;2023-09-19T00:53:01;5.90;;;1.60;;
20294;SDS011;10306;52.128;5.208;2023-09-19T00:55:34;6.87;;;1.70;;
20294;SDS011;10306;52.128;5.208;2023-09-19T00:58:02;4.33;;;2.10;;
20294;SDS011;10306;52.128;5.208;2023-09-19T01:00:28;2.57;;;1.43;;
20294;SDS011;10306;52.128;5.208;2023-09-19T01:02:54;7.10;;;1.60;;
20294;SDS011;10306;52.128;5.208;2023-09-19T01:05:20;6.60;;;1.73;;
20294;SDS011;10306;52.128;5.208;2023-09-19T01:07:48;7.73;;;2.00;;
20294;SDS011;10306;52.128;5.208;2023-09-19T01:10:15;5.80;;;2.00;;
20294;SDS011;10306;52.128;5.208;2023-09-19T01:15:38;3.23;;;1.63;;
20294;SDS011;10306;52.128;5.208;2023-09-19T01:20:45;6.57;;;1.87;;
20294;SDS011;10306;52.128;5.208;2023-09-19T01:26:07;3.67;;;1.57;;
20294;SDS011;10306;52.128;5.208;2023-09-19T01:28:39;2.83;;;1.77;;
20294;SDS011;10306;52.128;5.208;2023-09-19T01:31:09;1.73;;;1.63;;
20294;SDS011;10306;52.128;5.208;2023-09-19T01:36:25;1.90;;;1.80;;
20294;SDS011;10306;52.128;5.208;2023-09-19T01:38:51;3.27;;;2.00;;
20294;SDS011;10306;52.128;5.208;2023-09-19T01:41:19;5.50;;;2.10;;
20294;SDS011;10306;52.128;5.208;2023-09-19T01:43:47;3.77;;;2.10;;
20294;SDS011;10306;52.128;5.208;2023-09-19T01:46:23;5.13;;;1.63;;
20294;SDS011;10306;52.128;5.208;2023-09-19T01:54:00;3.57;;;1.67;;
20294;SDS011;10306;52.128;5.208;2023-09-19T01:56:30;4.17;;;1.60;;
20294;SDS011;10306;52.128;5.208;2023-09-19T01:59:02;6.07;;;1.77;;
20294;SDS011;10306;52.128;5.208;2023-09-19T02:01:30;5.13;;;2.20;;
20294;SDS011;10306;52.128;5.208;2023-09-19T02:03:56;3.23;;;1.73;;
20294;SDS011;10306;52.128;5.208;2023-09-19T02:06:23;4.90;;;1.80;;
20294;SDS011;10306;52.128;5.208;2023-09-19T02:08:50;7.20;;;1.70;;
20294;SDS011;10306;52.128;5.208;2023-09-19T02:11:16;6.27;;;2.20;;
20294;SDS011;10306;52.128;5.208;2023-09-19T02:13:42;3.90;;;1.80;;
20294;SDS011;10306;52.128;5.208;2023-09-19T02:16:09;6.73;;;1.80;;
20294;SDS011;10306;52.128;5.208;2023-09-19T02:18:35;4.20;;;1.60;;
20294;SDS011;10306;52.128;5.208;2023-09-19T02:21:02;5.33;;;1.97;;
20294;SDS011;10306;52.128;5.208;2023-09-19T02:23:29;5.07;;;2.20;;
20294;SDS011;10306;52.128;5.208;2023-09-19T02:25:55;3.63;;;1.63;;
20294;SDS011;10306;52.128;5.208;2023-09-19T02:28:25;5.97;;;2.10;;
20294;SDS011;10306;52.128;5.208;2023-09-19T02:30:55;4.13;;;1.80;;
20294;SDS011;10306;52.128;5.208;2023-09-19T02:33:21;5.07;;;1.90;;
20294;SDS011;10306;52.128;5.208;2023-09-19T02:35:47;6.03;;;1.93;;
20294;SDS011;10306;52.128;5.208;2023-09-19T02:38:13;6.43;;;1.90;;
20294;SDS011;10306;52.128;5.208;2023-09-19T02:40:43;3.97;;;1.90;;
20294;SDS011;10306;52.128;5.208;2023-09-19T02:43:09;3.10;;;1.73;;
20294;SDS011;10306;52.128;5.208;2023-09-19T02:45:35;6.50;;;2.47;;
20294;SDS011;10306;52.128;5.208;2023-09-19T02:48:01;4.97;;;1.97;;
20294;SDS011;10306;52.128;5.208;2023-09-19T02:50:27;4.03;;;1.60;;
20294;SDS011;10306;52.128;5.208;2023-09-19T02:52:53;4.10;;;2.10;;
20294;SDS011;10306;52.128;5.208;2023-09-19T02:55:19;11.53;;;2.20;;
20294;SDS011;10306;52.128;5.208;2023-09-19T02:57:47;6.70;;;2.17;;
20294;SDS011;10306;52.128;5.208;2023-09-19T03:00:13;7.17;;;1.80;;
20294;SDS011;10306;52.128;5.208;2023-09-19T03:02:39;8.67;;;1.97;;
20294;SDS011;10306;52.128;5.208;2023-09-19T03:05:06;8.80;;;2.37;;
20294;SDS011;10306;52.128;5.208;2023-09-19T03:07:33;6.60;;;2.13;;
20294;SDS011;10306;52.128;5.208;2023-09-19T03:09:59;7.70;;;2.17;;
20294;SDS011;10306;52.128;5.208;2023-09-19T03:12:26;5.70;;;2.40;;
20294;SDS011;10306;52.128;5.208;2023-09-19T03:14:52;5.27;;;2.33;;
20294;SDS011;10306;52.128;5.208;2023-09-19T03:17:18;6.27;;;2.00;;
20294;SDS011;10306;52.128;5.208;2023-09-19T03:19:44;6.57;;;2.33;;
20294;SDS011;10306;52.128;5.208;2023-09-19T03:22:12;5.70;;;2.30;;
20294;SDS011;10306;52.128;5.208;2023-09-19T03:24:38;5.97;;;2.30;;
20294;SDS011;10306;52.128;5.208;2023-09-19T03:27:04;10.23;;;2.93;;
20294;SDS011;10306;52.128;5.208;2023-09-19T03:29:30;6.90;;;2.10;;
20294;SDS011;10306;52.128;5.208;2023-09-19T03:31:56;7.37;;;2.20;;
20294;SDS011;10306;52.128;5.208;2023-09-19T03:34:22;7.93;;;2.30;;
20294;SDS011;10306;52.128;5.208;2023-09-19T03:36:48;6.50;;;1.90;;
20294;SDS011;10306;52.128;5.208;2023-09-19T03:39:14;6.53;;;1.93;;
20294;SDS011;10306;52.128;5.208;2023-09-19T03:41:40;10.70;;;2.80;;
20294;SDS011;10306;52.128;5.208;2023-09-19T03:44:06;3.57;;;2.00;;
20294;SDS011;10306;52.128;5.208;2023-09-19T03:46:32;8.30;;;2.17;;
20294;SDS011;10306;52.128;5.208;2023-09-19T03:49:00;6.20;;;2.17;;
20294;SDS011;10306;52.128;5.208;2023-09-19T03:51:26;7.80;;;2.63;;
20294;SDS011;10306;52.128;5.208;2023-09-19T03:53:52;5.73;;;2.20;;
20294;SDS011;10306;52.128;5.208;2023-09-19T03:56:18;7.50;;;2.70;;
20294;SDS011;10306;52.128;5.208;2023-09-19T03:58:44;9.50;;;2.20;;
20294;SDS011;10306;52.128;5.208;2023-09-19T04:01:10;11.80;;;2.30;;
20294;SDS011;10306;52.128;5.208;2023-09-19T04:03:38;8.47;;;2.33;;
20294;SDS011;10306;52.128;5.208;2023-09-19T04:06:13;9.10;;;2.33;;
20294;SDS011;10306;52.128;5.208;2023-09-19T04:08:39;6.50;;;2.10;;
20294;SDS011;10306;52.128;5.208;2023-09-19T04:11:05;3.67;;;1.70;;
20294;SDS011;10306;52.128;5.208;2023-09-19T04:13:36;8.33;;;2.33;;
20294;SDS011;10306;52.128;5.208;2023-09-19T04:16:11;7.37;;;2.67;;
20294;SDS011;10306;52.128;5.208;2023-09-19T04:18:37;5.40;;;2.13;;
20294;SDS011;10306;52.128;5.208;2023-09-19T04:21:04;7.03;;;2.07;;
20294;SDS011;10306;52.128;5.208;2023-09-19T04:23:31;7.33;;;2.13;;
20294;SDS011;10306;52.128;5.208;2023-09-19T04:25:57;6.27;;;2.10;;
20294;SDS011;10306;52.128;5.208;2023-09-19T04:28:23;7.30;;;2.03;;
20294;SDS011;10306;52.128;5.208;2023-09-19T04:30:49;5.03;;;1.53;;
20294;SDS011;10306;52.128;5.208;2023-09-19T04:33:15;9.27;;;2.97;;
20294;SDS011;10306;52.128;5.208;2023-09-19T04:35:42;6.57;;;1.90;;
20294;SDS011;10306;52.128;5.208;2023-09-19T04:38:08;7.13;;;2.13;;
20294;SDS011;10306;52.128;5.208;2023-09-19T04:40:34;5.73;;;1.97;;
20294;SDS011;10306;52.128;5.208;2023-09-19T04:43:00;6.77;;;1.77;;
20294;SDS011;10306;52.128;5.208;2023-09-19T04:45:27;4.67;;;1.53;;
20294;SDS011;10306;52.128;5.208;2023-09-19T04:47:53;9.50;;;1.90;;
20294;SDS011;10306;52.128;5.208;2023-09-19T04:50:19;6.33;;;2.17;;
20294;SDS011;10306;52.128;5.208;2023-09-19T04:52:46;5.27;;;1.90;;
20294;SDS011;10306;52.128;5.208;2023-09-19T04:55:16;5.80;;;2.00;;
20294;SDS011;10306;52.128;5.208;2023-09-19T04:57:45;7.67;;;1.73;;
20294;SDS011;10306;52.128;5.208;2023-09-19T05:00:15;6.60;;;2.20;;
20294;SDS011;10306;52.128;5.208;2023-09-19T05:02:44;7.17;;;2.47;;
20294;SDS011;10306;52.128;5.208;2023-09-19T05:05:10;6.47;;;2.17;;
20294;SDS011;10306;52.128;5.208;2023-09-19T05:07:37;4.77;;;1.70;;
20294;SDS011;10306;52.128;5.208;2023-09-19T05:10:04;14.43;;;2.37;;
20294;SDS011;10306;52.128;5.208;2023-09-19T05:12:34;6.63;;;1.80;;
20294;SDS011;10306;52.128;5.208;2023-09-19T05:15:01;3.83;;;2.00;;
20294;SDS011;10306;52.128;5.208;2023-09-19T05:17:27;5.60;;;1.80;;
20294;SDS011;10306;52.128;5.208;2023-09-19T05:19:53;6.53;;;2.00;;
20294;SDS011;10306;52.128;5.208;2023-09-19T05:22:19;10.83;;;2.23;;
20294;SDS011;10306;52.128;5.208;2023-09-19T05:24:45;5.33;;;2.20;;
20294;SDS011;10306;52.128;5.208;2023-09-19T05:27:14;11.07;;;2.60;;
20294;SDS011;10306;52.128;5.208;2023-09-19T05:29:42;4.57;;;2.03;;
20294;SDS011;10306;52.128;5.208;2023-09-19T05:32:08;3.73;;;1.90;;
20294;SDS011;10306;52.128;5.208;2023-09-19T05:34:35;8.33;;;2.17;;
20294;SDS011;10306;52.128;5.208;2023-09-19T05:37:01;10.83;;;3.03;;
20294;SDS011;10306;52.128;5.208;2023-09-19T05:39:27;9.07;;;2.27;;
20294;SDS011;10306;52.128;5.208;2023-09-19T05:41:53;8.90;;;2.03;;
20294;SDS011;10306;52.128;5.208;2023-09-19T05:44:20;7.70;;;2.00;;
20294;SDS011;10306;52.128;5.208;2023-09-19T05:46:46;5.80;;;2.20;;
20294;SDS011;10306;52.128;5.208;2023-09-19T05:49:13;11.03;;;2.50;;
20294;SDS011;10306;52.128;5.208;2023-09-19T05:51:39;8.33;;;2.77;;
20294;SDS011;10306;52.128;5.208;2023-09-19T05:54:05;5.40;;;1.80;;
20294;SDS011;10306;52.128;5.208;2023-09-19T05:56:31;6.07;;;2.17;;
20294;SDS011;10306;52.128;5.208;2023-09-19T05:58:57;11.17;;;2.27;;
20294;SDS011;10306;52.128;5.208;2023-09-19T06:01:23;7.43;;;2.20;;
20294;SDS011;10306;52.128;5.208;2023-09-19T06:03:49;7.80;;;2.03;;
20294;SDS011;10306;52.128;5.208;2023-09-19T06:06:16;6.87;;;2.60;;
20294;SDS011;10306;52.128;5.208;2023-09-19T06:08:42;4.77;;;1.90;;
20294;SDS011;10306;52.128;5.208;2023-09-19T06:11:10;4.23;;;2.20;;
20294;SDS011;10306;52.128;5.208;2023-09-19T06:13:36;9.70;;;2.17;;
20294;SDS011;10306;52.128;5.208;2023-09-19T06:16:04;12.43;;;2.63;;
20294;SDS011;10306;52.128;5.208;2023-09-19T06:18:33;6.03;;;2.67;;
20294;SDS011;10306;52.128;5.208;2023-09-19T06:20:59;9.07;;;1.97;;
20294;SDS011;10306;52.128;5.208;2023-09-19T06:23:25;6.70;;;2.60;;
20294;SDS011;10306;52.128;5.208;2023-09-19T06:25:54;5.37;;;2.43;;
20294;SDS011;10306;52.128;5.208;2023-09-19T06:28:20;5.70;;;2.00;;
20294;SDS011;10306;52.128;5.208;2023-09-19T06:30:50;7.93;;;2.40;;
20294;SDS011;10306;52.128;5.208;2023-09-19T06:33:16;10.00;;;2.00;;
20294;SDS011;10306;52.128;5.208;2023-09-19T06:35:43;8.27;;;2.33;;
20294;SDS011;10306;52.128;5.208;2023-09-19T06:38:09;8.93;;;2.57;;
20294;SDS011;10306;52.128;5.208;2023-09-19T06:40:38;9.63;;;2.23;;
20294;SDS011;10306;52.128;5.208;2023-09-19T06:43:05;10.63;;;2.17;;
20294;SDS011;10306;52.128;5.208;2023-09-19T06:45:31;8.43;;;2.10;;
20294;SDS011;10306;52.128;5.208;2023-09-19T06:47:57;12.17;;;2.33;;
20294;SDS011;10306;52.128;5.208;2023-09-19T06:50:25;8.77;;;2.07;;
20294;SDS011;10306;52.128;5.208;2023-09-19T06:52:52;6.07;;;1.80;;
20294;SDS011;10306;52.128;5.208;2023-09-19T06:55:20;8.63;;;2.23;;
20294;SDS011;10306;52.128;5.208;2023-09-19T06:57:49;11.77;;;2.67;;
20294;SDS011;10306;52.128;5.208;2023-09-19T07:00:16;6.43;;;2.20;;
20294;SDS011;10306;52.128;5.208;2023-09-19T07:02:59;10.53;;;2.83;;
20294;SDS011;10306;52.128;5.208;2023-09-19T07:05:28;8.37;;;2.47;;
20294;SDS011;10306;52.128;5.208;2023-09-19T07:07:56;7.83;;;2.43;;
20294;SDS011;10306;52.128;5.208;2023-09-19T07:10:25;7.30;;;2.30;;
20294;SDS011;10306;52.128;5.208;2023-09-19T07:12:58;5.70;;;2.30;;
20294;SDS011;10306;52.128;5.208;2023-09-19T07:15:28;5.60;;;2.17;;
20294;SDS011;10306;52.128;5.208;2023-09-19T07:17:55;7.33;;;2.50;;
20294;SDS011;10306;52.128;5.208;2023-09-19T07:20:22;5.53;;;1.97;;
20294;SDS011;10306;52.128;5.208;2023-09-19T07:22:51;13.17;;;2.60;;
20294;SDS011;10306;52.128;5.208;2023-09-19T07:25:17;7.40;;;2.30;;
20294;SDS011;10306;52.128;5.208;2023-09-19T07:27:43;8.43;;;2.53;;
20294;SDS011;10306;52.128;5.208;2023-09-19T07:30:10;10.60;;;2.07;;
20294;SDS011;10306;52.128;5.208;2023-09-19T07:32:36;10.77;;;2.13;;
20294;SDS011;10306;52.128;5.208;2023-09-19T07:35:03;11.97;;;2.23;;
20294;SDS011;10306;52.128;5.208;2023-09-19T07:37:29;8.00;;;2.57;;
20294;SDS011;10306;52.128;5.208;2023-09-19T07:39:58;6.87;;;2.43;;
20294;SDS011;10306;52.128;5.208;2023-09-19T07:42:24;7.83;;;2.20;;
20294;SDS011;10306;52.128;5.208;2023-09-19T07:44:50;8.97;;;2.67;;
20294;SDS011;10306;52.128;5.208;2023-09-19T07:47:18;3.13;;;2.20;;
20294;SDS011;10306;52.128;5.208;2023-09-19T07:49:46;8.33;;;2.27;;
20294;SDS011;10306;52.128;5.208;2023-09-19T07:52:12;8.87;;;2.70;;
20294;SDS011;10306;52.128;5.208;2023-09-19T07:54:39;10.97;;;2.70;;
20294;SDS011;10306;52.128;5.208;2023-09-19T07:57:09;8.80;;;2.47;;
20294;SDS011;10306;52.128;5.208;2023-09-19T07:59:36;5.63;;;2.17;;
20294;SDS011;10306;52.128;5.208;2023-09-19T08:02:03;5.93;;;2.60;;
20294;SDS011;10306;52.128;5.208;2023-09-19T08:04:29;6.03;;;2.37;;
20294;SDS011;10306;52.128;5.208;2023-09-19T08:06:58;7.83;;;2.80;;
20294;SDS011;10306;52.128;5.208;2023-09-19T08:09:25;9.27;;;2.90;;
20294;SDS011;10306;52.128;5.208;2023-09-19T08:11:52;8.07;;;2.27;;
20294;SDS011;10306;52.128;5.208;2023-09-19T08:14:19;8.77;;;2.20;;
20294;SDS011;10306;52.128;5.208;2023-09-19T08:16:44;11.67;;;2.40;;
20294;SDS011;10306;52.128;5.208;2023-09-19T08:19:11;8.67;;;2.80;;
20294;SDS011;10306;52.128;5.208;2023-09-19T08:21:37;9.20;;;2.80;;
20294;SDS011;10306;52.128;5.208;2023-09-19T08:24:03;7.80;;;2.50;;
20294;SDS011;10306;52.128;5.208;2023-09-19T08:26:29;6.57;;;2.47;;
20294;SDS011;10306;52.128;5.208;2023-09-19T08:28:56;12.20;;;3.57;;
20294;SDS011;10306;52.128;5.208;2023-09-19T08:31:22;9.33;;;2.60;;
20294;SDS011;10306;52.128;5.208;2023-09-19T08:33:48;6.13;;;2.43;;
20294;SDS011;10306;52.128;5.208;2023-09-19T08:36:14;8.87;;;2.47;;
20294;SDS011;10306;52.128;5.208;2023-09-19T08:38:40;6.53;;;2.47;;
20294;SDS011;10306;52.128;5.208;2023-09-19T08:41:07;8.30;;;2.90;;
20294;SDS011;10306;52.128;5.208;2023-09-19T08:43:33;7.27;;;2.67;;
20294;SDS011;10306;52.128;5.208;2023-09-19T08:46:10;6.53;;;2.53;;
20294;SDS011;10306;52.128;5.208;2023-09-19T08:49:12;14.43;;;3.43;;
20294;SDS011;10306;52.128;5.208;2023-09-19T08:51:33;6.07;;;2.47;;
20294;SDS011;10306;52.128;5.208;2023-09-19T08:54:08;9.87;;;3.07;;
20294;SDS011;10306;52.128;5.208;2023-09-19T08:56:38;8.60;;;2.23;;
20294;SDS011;10306;52.128;5.208;2023-09-19T08:59:05;8.97;;;2.13;;
20294;SDS011;10306;52.128;5.208;2023-09-19T09:01:36;7.07;;;2.77;;
20294;SDS011;10306;52.128;5.208;2023-09-19T09:04:02;12.17;;;2.50;;
20294;SDS011;10306;52.128;5.208;2023-09-19T09:06:28;7.67;;;2.40;;
20294;SDS011;10306;52.128;5.208;2023-09-19T09:08:55;6.90;;;2.23;;
20294;SDS011;10306;52.128;5.208;2023-09-19T09:11:21;6.27;;;2.53;;
20294;SDS011;10306;52.128;5.208;2023-09-19T09:13:50;8.13;;;2.23;;
20294;SDS011;10306;52.128;5.208;2023-09-19T09:16:16;12.77;;;2.50;;
20294;SDS011;10306;52.128;5.208;2023-09-19T09:18:44;10.83;;;1.97;;
20294;SDS011;10306;52.128;5.208;2023-09-19T09:21:10;9.40;;;2.27;;
20294;SDS011;10306;52.128;5.208;2023-09-19T09:23:36;5.40;;;2.07;;
20294;SDS011;10306;52.128;5.208;2023-09-19T09:26:02;6.53;;;1.93;;
20294;SDS011;10306;52.128;5.208;2023-09-19T09:28:30;6.33;;;2.40;;
20294;SDS011;10306;52.128;5.208;2023-09-19T09:30:58;12.03;;;2.70;;
20294;SDS011;10306;52.128;5.208;2023-09-19T09:33:24;5.57;;;2.00;;
20294;SDS011;10306;52.128;5.208;2023-09-19T09:35:51;9.10;;;2.13;;
20294;SDS011;10306;52.128;5.208;2023-09-19T09:38:20;10.87;;;2.93;;
20294;SDS011;10306;52.128;5.208;2023-09-19T09:40:51;8.83;;;2.30;;
20294;SDS011;10306;52.128;5.208;2023-09-19T09:43:29;5.13;;;2.20;;
20294;SDS011;10306;52.128;5.208;2023-09-19T09:46:05;9.83;;;2.53;;
20294;SDS011;10306;52.128;5.208;2023-09-19T09:48:44;6.17;;;2.70;;
20294;SDS011;10306;52.128;5.208;2023-09-19T09:51:16;12.53;;;2.20;;
20294;SDS011;10306;52.128;5.208;2023-09-19T09:54:00;10.93;;;2.67;;
20294;SDS011;10306;52.128;5.208;2023-09-19T09:56:41;12.00;;;2.80;;
20294;SDS011;10306;52.128;5.208;2023-09-19T09:59:18;6.80;;;2.63;;
20294;SDS011;10306;52.128;5.208;2023-09-19T10:01:48;6.93;;;2.57;;
20294;SDS011;10306;52.128;5.208;2023-09-19T10:04:36;8.53;;;2.20;;
20294;SDS011;10306;52.128;5.208;2023-09-19T10:07:09;8.83;;;2.00;;
20294;SDS011;10306;52.128;5.208;2023-09-19T10:09:45;9.83;;;2.30;;
20294;SDS011;10306;52.128;5.208;2023-09-19T10:12:12;8.53;;;2.17;;
20294;SDS011;10306;52.128;5.208;2023-09-19T10:14:38;6.43;;;2.17;;
20294;SDS011;10306;52.128;5.208;2023-09-19T10:17:08;5.43;;;1.80;;
20294;SDS011;10306;52.128;5.208;2023-09-19T10:22:11;7.13;;;2.03;;
20294;SDS011;10306;52.128;5.208;2023-09-19T10:24:39;5.73;;;2.17;;
20294;SDS011;10306;52.128;5.208;2023-09-19T10:27:06;6.70;;;2.43;;
20294;SDS011;10306;52.128;5.208;2023-09-19T10:29:36;4.43;;;2.03;;
20294;SDS011;10306;52.128;5.208;2023-09-19T10:32:05;5.47;;;2.00;;
20294;SDS011;10306;52.128;5.208;2023-09-19T10:34:34;8.23;;;2.10;;
20294;SDS011;10306;52.128;5.208;2023-09-19T10:37:02;3.53;;;1.60;;
20294;SDS011;10306;52.128;5.208;2023-09-19T10:39:30;3.43;;;1.77;;
20294;SDS011;10306;52.128;5.208;2023-09-19T10:41:57;5.50;;;1.90;;
20294;SDS011;10306;52.128;5.208;2023-09-19T10:44:30;4.23;;;1.93;;
20294;SDS011;10306;52.128;5.208;2023-09-19T10:46:56;2.97;;;1.70;;
20294;SDS011;10306;52.128;5.208;2023-09-19T10:49:23;6.83;;;2.13;;
20294;SDS011;10306;52.128;5.208;2023-09-19T10:51:50;7.67;;;2.20;;
20294;SDS011;10306;52.128;5.208;2023-09-19T10:54:20;6.93;;;1.97;;
20294;SDS011;10306;52.128;5.208;2023-09-19T10:56:48;5.30;;;2.30;;
20294;SDS011;10306;52.128;5.208;2023-09-19T10:59:16;6.80;;;2.00;;
20294;SDS011;10306;52.128;5.208;2023-09-19T11:07:13;3.80;;;1.93;;
20294;SDS011;10306;52.128;5.208;2023-09-19T11:09:47;1.97;;;1.40;;
20294;SDS011;10306;52.128;5.208;2023-09-19T11:14:52;12.13;;;2.50;;
20294;SDS011;10306;52.128;5.208;2023-09-19T11:30:34;3.47;;;1.57;;
20294;SDS011;10306;52.128;5.208;2023-09-19T11:43:46;3.67;;;1.50;;
20294;SDS011;10306;52.128;5.208;2023-09-19T11:46:12;6.27;;;1.50;;
20294;SDS011;10306;52.128;5.208;2023-09-19T11:48:41;4.53;;;1.30;;
20294;SDS011;10306;52.128;5.208;2023-09-19T11:51:12;4.63;;;1.07;;
20294;SDS011;10306;52.128;5.208;2023-09-19T11:53:48;4.07;;;1.10;;
20294;SDS011;10306;52.128;5.208;2023-09-19T11:56:18;1.40;;;1.07;;
20294;SDS011;10306;52.128;5.208;2023-09-19T11:58:45;3.67;;;1.27;;
20294;SDS011;10306;52.128;5.208;2023-09-19T12:01:14;8.27;;;1.70;;
20294;SDS011;10306;52.128;5.208;2023-09-19T12:03:45;4.00;;;1.53;;
20294;SDS011;10306;52.128;5.208;2023-09-19T12:06:13;2.67;;;1.03;;
20294;SDS011;10306;52.128;5.208;2023-09-19T12:08:39;2.47;;;1.00;;
20294;SDS011;10306;52.128;5.208;2023-09-19T12:11:07;2.37;;;1.37;;
20294;SDS011;10306;52.128;5.208;2023-09-19T12:13:35;3.50;;;1.60;;
20294;SDS011;10306;52.128;5.208;2023-09-19T12:16:11;2.27;;;1.47;;
20294;SDS011;10306;52.128;5.208;2023-09-19T12:18:39;4.47;;;1.63;;
20294;SDS011;10306;52.128;5.208;2023-09-19T12:21:08;3.97;;;1.30;;
20294;SDS011;10306;52.128;5.208;2023-09-19T12:23:37;5.83;;;1.60;;
20294;SDS011;10306;52.128;5.208;2023-09-19T12:26:06;5.03;;;1.50;;
20294;SDS011;10306;52.128;5.208;2023-09-19T12:28:38;3.50;;;1.10;;
20294;SDS011;10306;52.128;5.208;2023-09-19T12:31:07;6.73;;;1.77;;
20294;SDS011;10306;52.128;5.208;2023-09-19T12:33:33;3.50;;;1.13;;
20294;SDS011;10306;52.128;5.208;2023-09-19T12:36:00;2.93;;;1.67;;
20294;SDS011;10306;52.128;5.208;2023-09-19T12:38:28;2.90;;;1.27;;
20294;SDS011;10306;52.128;5.208;2023-09-19T12:40:58;4.03;;;1.43;;
20294;SDS011;10306;52.128;5.208;2023-09-19T12:43:25;1.70;;;1.30;;
20294;SDS011;10306;52.128;5.208;2023-09-19T12:45:52;1.93;;;1.43;;
20294;SDS011;10306;52.128;5.208;2023-09-19T12:48:19;3.00;;;1.10;;
20294;SDS011;10306;52.128;5.208;2023-09-19T12:51:04;3.00;;;1.30;;
20294;SDS011;10306;52.128;5.208;2023-09-19T12:53:31;4.00;;;1.10;;
20294;SDS011;10306;52.128;5.208;2023-09-19T12:55:58;3.63;;;1.40;;
20294;SDS011;10306;52.128;5.208;2023-09-19T12:58:25;4.37;;;1.57;;
20294;SDS011;10306;52.128;5.208;2023-09-19T13:00:51;2.07;;;1.20;;
20294;SDS011;10306;52.128;5.208;2023-09-19T13:05:52;3.77;;;1.00;;
20294;SDS011;10306;52.128;5.208;2023-09-19T13:13:32;4.53;;;1.83;;
20294;SDS011;10306;52.128;5.208;2023-09-19T13:15:58;3.83;;;1.33;;
20294;SDS011;10306;52.128;5.208;2023-09-19T13:18:26;1.90;;;1.37;;
20294;SDS011;10306;52.128;5.208;2023-09-19T13:21:11;2.17;;;1.17;;
20294;SDS011;10306;52.128;5.208;2023-09-19T13:23:47;7.27;;;1.67;;
20294;SDS011;10306;52.128;5.208;2023-09-19T13:26:13;4.33;;;1.53;;
20294;SDS011;10306;52.128;5.208;2023-09-19T13:28:40;4.70;;;1.20;;
20294;SDS011;10306;52.128;5.208;2023-09-19T13:31:06;2.20;;;1.23;;
20294;SDS011;10306;52.128;5.208;2023-09-19T13:33:33;1.63;;;1.17;;
20294;SDS011;10306;52.128;5.208;2023-09-19T13:36:00;2.80;;;1.87;;
20294;SDS011;10306;52.128;5.208;2023-09-19T13:38:26;1.83;;;1.27;;
20294;SDS011;10306;52.128;5.208;2023-09-19T13:40:53;3.93;;;1.40;;
20294;SDS011;10306;52.128;5.208;2023-09-19T13:43:19;7.10;;;1.40;;
20294;SDS011;10306;52.128;5.208;2023-09-19T13:45:47;5.33;;;1.40;;
20294;SDS011;10306;52.128;5.208;2023-09-19T13:48:13;4.70;;;1.20;;
20294;SDS011;10306;52.128;5.208;2023-09-19T13:50:39;3.77;;;1.37;;
20294;SDS011;10306;52.128;5.208;2023-09-19T13:53:07;1.33;;;1.00;;
20294;SDS011;10306;52.128;5.208;2023-09-19T13:55:34;4.00;;;1.53;;
20294;SDS011;10306;52.128;5.208;2023-09-19T13:58:00;1.70;;;1.60;;
20294;SDS011;10306;52.128;5.208;2023-09-19T14:00:26;3.83;;;1.20;;
20294;SDS011;10306;52.128;5.208;2023-09-19T14:02:53;1.70;;;1.50;;
20294;SDS011;10306;52.128;5.208;2023-09-19T14:05:19;3.17;;;1.30;;
20294;SDS011;10306;52.128;5.208;2023-09-19T14:07:45;3.13;;;1.37;;
20294;SDS011;10306;52.128;5.208;2023-09-19T14:10:11;2.93;;;1.23;;
20294;SDS011;10306;52.128;5.208;2023-09-19T14:12:38;1.57;;;1.30;;
20294;SDS011;10306;52.128;5.208;2023-09-19T14:15:07;3.23;;;1.40;;
20294;SDS011;10306;52.128;5.208;2023-09-19T14:17:33;3.60;;;1.30;;
20294;SDS011;10306;52.128;5.208;2023-09-19T14:19:59;6.33;;;1.60;;
20294;SDS011;10306;52.128;5.208;2023-09-19T14:22:25;2.13;;;1.43;;
20294;SDS011;10306;52.128;5.208;2023-09-19T14:24:51;1.40;;;1.30;;
20294;SDS011;10306;52.128;5.208;2023-09-19T14:27:18;2.30;;;1.50;;
20294;SDS011;10306;52.128;5.208;2023-09-19T14:29:44;2.80;;;1.60;;
20294;SDS011;10306;52.128;5.208;2023-09-19T14:32:10;2.50;;;1.47;;
20294;SDS011;10306;52.128;5.208;2023-09-19T14:34:36;4.33;;;1.47;;
20294;SDS011;10306;52.128;5.208;2023-09-19T14:37:07;3.73;;;1.70;;
20294;SDS011;10306;52.128;5.208;2023-09-19T14:39:33;8.23;;;2.07;;
20294;SDS011;10306;52.128;5.208;2023-09-19T14:41:58;3.07;;;1.67;;
20294;SDS011;10306;52.128;5.208;2023-09-19T14:44:24;3.20;;;1.70;;
20294;SDS011;10306;52.128;5.208;2023-09-19T14:46:50;3.87;;;1.87;;
20294;SDS011;10306;52.128;5.208;2023-09-19T14:49:16;4.87;;;1.80;;
20294;SDS011;10306;52.128;5.208;2023-09-19T14:51:42;3.40;;;1.70;;
20294;SDS011;10306;52.128;5.208;2023-09-19T14:54:14;3.63;;;1.50;;
20294;SDS011;10306;52.128;5.208;2023-09-19T14:56:43;5.00;;;1.87;;
20294;SDS011;10306;52.128;5.208;2023-09-19T14:59:10;2.50;;;1.60;;
20294;SDS011;10306;52.128;5.208;2023-09-19T15:01:36;3.10;;;1.73;;
20294;SDS011;10306;52.128;5.208;2023-09-19T15:04:03;3.77;;;1.60;;
20294;SDS011;10306;52.128;5.208;2023-09-19T15:06:29;5.67;;;1.70;;
20294;SDS011;10306;52.128;5.208;2023-09-19T15:08:55;3.43;;;1.50;;
20294;SDS011;10306;52.128;5.208;2023-09-19T15:11:22;5.80;;;1.83;;
20294;SDS011;10306;52.128;5.208;2023-09-19T15:13:51;5.13;;;1.90;;
20294;SDS011;10306;52.128;5.208;2023-09-19T15:16:18;1.93;;;1.63;;
20294;SDS011;10306;52.128;5.208;2023-09-19T15:18:44;2.07;;;1.87;;
20294;SDS011;10306;52.128;5.208;2023-09-19T15:21:13;7.53;;;1.70;;
20294;SDS011;10306;52.128;5.208;2023-09-19T15:23:40;3.57;;;1.97;;
20294;SDS011;10306;52.128;5.208;2023-09-19T15:26:07;4.43;;;2.07;;
20294;SDS011;10306;52.128;5.208;2023-09-19T15:28:53;5.47;;;2.10;;
20294;SDS011;10306;52.128;5.208;2023-09-19T15:31:19;7.73;;;2.87;;
20294;SDS011;10306;52.128;5.208;2023-09-19T15:33:45;3.37;;;2.00;;
20294;SDS011;10306;52.128;5.208;2023-09-19T15:36:12;4.03;;;1.93;;
20294;SDS011;10306;52.128;5.208;2023-09-19T15:41:39;5.40;;;2.03;;
20294;SDS011;10306;52.128;5.208;2023-09-19T15:44:11;3.63;;;2.00;;
20294;SDS011;10306;52.128;5.208;2023-09-19T15:46:38;2.00;;;1.80;;
20294;SDS011;10306;52.128;5.208;2023-09-19T15:49:04;2.97;;;1.80;;
20294;SDS011;10306;52.128;5.208;2023-09-19T15:51:30;3.83;;;1.83;;